createdAt,value
2019-05-20T00:00:49.832Z,11.80
2019-05-20T00:01:49.834Z,11.60
2019-05-20T00:02:49.779Z,11.30
2019-05-20T00:03:50.873Z,11.30
2019-05-20T00:04:49.728Z,12.90
2019-05-20T00:05:49.776Z,12.60
2019-05-20T00:06:49.671Z,13.00
2019-05-20T00:07:49.774Z,12.90
2019-05-20T00:08:49.624Z,13.50
2019-05-20T00:09:49.675Z,13.00
2019-05-20T00:10:49.563Z,13.00
2019-05-20T00:11:53.542Z,14.90
2019-05-20T00:12:49.512Z,14.10
2019-05-20T00:13:49.495Z,14.10
2019-05-20T00:14:49.458Z,14.30
2019-05-20T00:15:49.509Z,14.60
2019-05-20T00:16:49.476Z,16.50
2019-05-20T00:17:49.428Z,14.10
2019-05-20T00:18:49.385Z,13.20
2019-05-20T00:19:50.810Z,13.90
2019-05-20T00:20:49.296Z,13.80
2019-05-20T00:21:49.393Z,14.30
2019-05-20T00:22:49.245Z,14.30
2019-05-20T00:23:50.291Z,14.20
2019-05-20T00:24:49.195Z,13.60
2019-05-20T00:25:49.273Z,13.90
2019-05-20T00:26:49.139Z,14.10
2019-05-20T00:27:49.186Z,15.80
2019-05-20T00:28:49.083Z,13.60
2019-05-20T00:29:49.094Z,15.30
2019-05-20T00:30:49.022Z,13.40
2019-05-20T00:31:49.113Z,15.40
2019-05-20T00:32:48.977Z,13.70
2019-05-20T00:33:49.033Z,14.20
2019-05-20T00:34:48.933Z,14.00
2019-05-20T00:35:48.942Z,14.60
2019-05-20T00:36:48.871Z,14.20
2019-05-20T00:37:48.963Z,14.90
2019-05-20T00:38:48.866Z,14.10
2019-05-20T00:39:48.864Z,14.50
2019-05-20T00:40:48.757Z,14.90
2019-05-20T00:41:48.850Z,14.20
2019-05-20T00:42:48.709Z,13.90
2019-05-20T00:43:48.743Z,15.80
2019-05-20T00:44:48.658Z,15.20
2019-05-20T00:45:48.652Z,17.30
2019-05-20T00:46:48.614Z,15.50
2019-05-20T00:47:48.674Z,14.70
2019-05-20T00:48:48.554Z,14.90
2019-05-20T00:49:49.719Z,14.70
2019-05-20T00:50:48.506Z,15.20
2019-05-20T00:51:48.541Z,15.30
2019-05-20T00:52:48.444Z,15.10
2019-05-20T00:53:48.449Z,14.90
2019-05-20T00:54:48.386Z,14.50
2019-05-20T00:55:48.465Z,14.70
2019-05-20T00:56:48.347Z,14.50
2019-05-20T00:57:48.377Z,15.30
2019-05-20T00:58:48.285Z,15.30
2019-05-20T00:59:49.306Z,16.00
2019-05-20T01:00:48.228Z,15.60
2019-05-20T01:01:48.301Z,15.90
2019-05-20T01:02:56.495Z,16.80
2019-05-20T01:03:48.222Z,15.70
2019-05-20T01:04:48.127Z,16.50
2019-05-20T01:05:48.118Z,17.70
2019-05-20T01:06:48.068Z,17.00
2019-05-20T01:07:48.218Z,16.60
2019-05-20T01:08:48.021Z,16.80
2019-05-20T01:09:48.063Z,16.30
2019-05-20T01:10:48.069Z,16.70
2019-05-20T01:11:48.995Z,15.30
2019-05-20T01:12:47.915Z,15.80
2019-05-20T01:13:47.985Z,16.50
2019-05-20T01:14:47.855Z,16.70
2019-05-20T01:15:47.885Z,16.00
2019-05-20T01:16:47.799Z,16.10
2019-05-20T01:17:47.809Z,16.30
2019-05-20T01:18:47.754Z,16.50
2019-05-20T01:19:47.805Z,16.10
2019-05-20T01:20:47.701Z,16.70
2019-05-20T01:21:48.749Z,16.90
2019-05-20T01:22:47.642Z,18.30
2019-05-20T01:23:47.666Z,16.60
2019-05-20T01:24:47.600Z,16.80
2019-05-20T01:25:48.675Z,17.60
2019-05-20T01:26:47.533Z,17.00
2019-05-20T01:27:47.562Z,17.40
2019-05-20T01:28:47.482Z,18.50
2019-05-20T01:29:47.475Z,18.30
2019-05-20T01:30:47.429Z,18.40
2019-05-20T01:31:47.483Z,18.80
2019-05-20T01:32:47.500Z,19.70
2019-05-20T01:33:47.402Z,18.30
2019-05-20T01:34:47.329Z,18.90
2019-05-20T01:35:47.409Z,19.80
2019-05-20T01:36:47.262Z,18.60
2019-05-20T01:37:47.327Z,18.60
2019-05-20T01:38:47.219Z,20.80
2019-05-20T01:39:47.255Z,17.70
2019-05-20T01:40:47.169Z,20.70
2019-05-20T01:41:47.241Z,19.50
2019-05-20T01:42:47.116Z,21.50
2019-05-20T01:43:47.176Z,20.00
2019-05-20T01:44:47.050Z,21.10
2019-05-20T01:45:49.122Z,19.80
2019-05-20T01:46:46.992Z,21.50
2019-05-20T01:47:48.019Z,20.90
2019-05-20T01:48:46.946Z,21.20
2019-05-20T01:49:47.025Z,21.30
2019-05-20T01:50:46.903Z,20.90
2019-05-20T01:51:47.942Z,20.40
2019-05-20T01:52:46.847Z,23.00
2019-05-20T01:53:53.578Z,21.00
2019-05-20T01:54:46.785Z,21.90
2019-05-20T01:55:46.839Z,25.00
2019-05-20T01:56:46.753Z,23.00
2019-05-20T01:57:46.755Z,23.90
2019-05-20T01:58:46.673Z,23.40
2019-05-20T01:59:46.762Z,22.10
2019-05-20T02:00:46.627Z,24.00
2019-05-20T02:01:53.658Z,21.90
2019-05-20T02:02:46.578Z,23.40
2019-05-20T02:03:46.588Z,22.20
2019-05-20T02:04:46.526Z,21.90
2019-05-20T02:05:47.530Z,22.70
2019-05-20T02:06:46.475Z,21.20
2019-05-20T02:07:46.523Z,21.80
2019-05-20T02:08:46.416Z,20.50
2019-05-20T02:09:47.450Z,23.90
2019-05-20T02:10:46.357Z,22.20
2019-05-20T02:11:46.431Z,22.70
2019-05-20T02:12:46.299Z,22.40
2019-05-20T02:13:48.297Z,21.90
2019-05-20T02:14:46.246Z,20.30
2019-05-20T02:15:46.262Z,24.40
2019-05-20T02:16:46.194Z,22.00
2019-05-20T02:17:46.276Z,21.30
2019-05-20T02:18:46.146Z,21.10
2019-05-20T02:19:47.203Z,19.80
2019-05-20T02:20:46.094Z,21.80
2019-05-20T02:21:46.098Z,23.00
2019-05-20T02:22:46.027Z,22.50
2019-05-20T02:23:46.103Z,21.30
2019-05-20T02:24:45.983Z,25.40
2019-05-20T02:25:46.885Z,22.80
2019-05-20T02:26:45.931Z,23.50
2019-05-20T02:27:45.932Z,22.50
2019-05-20T02:28:45.874Z,20.40
2019-05-20T02:29:46.873Z,24.00
2019-05-20T02:30:45.844Z,22.90
2019-05-20T02:31:45.861Z,21.00
2019-05-20T02:32:45.838Z,25.00
2019-05-20T02:33:51.818Z,22.70
2019-05-20T02:34:45.711Z,22.30
2019-05-20T02:35:45.775Z,24.30
2019-05-20T02:36:45.655Z,23.60
2019-05-20T02:37:46.688Z,21.90
2019-05-20T02:38:45.603Z,24.90
2019-05-20T02:39:47.617Z,25.30
2019-05-20T02:40:45.544Z,24.50
2019-05-20T02:41:52.140Z,24.10
2019-05-20T02:42:45.494Z,22.80
2019-05-20T02:43:45.499Z,23.90
2019-05-20T02:44:45.438Z,23.50
2019-05-20T02:45:47.480Z,23.40
2019-05-20T02:46:45.403Z,22.50
2019-05-20T02:47:46.471Z,25.80
2019-05-20T02:48:45.334Z,26.30
2019-05-20T02:49:45.485Z,27.00
2019-05-20T02:50:45.281Z,25.30
2019-05-20T02:51:47.320Z,24.80
2019-05-20T02:52:45.229Z,25.80
2019-05-20T02:53:47.360Z,29.70
2019-05-20T02:54:45.178Z,26.00
2019-05-20T02:55:45.322Z,26.80
2019-05-20T02:56:45.134Z,27.60
2019-05-20T02:57:45.189Z,28.30
2019-05-20T02:58:45.054Z,28.50
2019-05-20T02:59:46.124Z,29.00
2019-05-20T03:00:45.013Z,31.80
2019-05-20T03:01:47.075Z,31.50
2019-05-20T03:02:44.955Z,34.20
2019-05-20T03:04:10.721Z,34.40
2019-05-20T03:04:44.908Z,33.80
2019-05-20T03:05:44.933Z,35.70
2019-05-20T03:06:44.859Z,32.40
2019-05-20T03:07:45.881Z,32.00
2019-05-20T03:08:44.808Z,34.60
2019-05-20T03:09:44.859Z,34.80
2019-05-20T03:10:44.819Z,34.00
2019-05-20T03:11:51.636Z,34.00
2019-05-20T03:12:44.688Z,36.30
2019-05-20T03:13:44.681Z,35.80
2019-05-20T03:14:44.648Z,31.30
2019-05-20T03:15:44.808Z,35.90
2019-05-20T03:16:44.579Z,37.00
2019-05-20T03:17:44.620Z,35.40
2019-05-20T03:18:44.515Z,37.70
2019-05-20T03:19:44.528Z,37.50
2019-05-20T03:20:44.461Z,35.80
2019-05-20T03:21:44.623Z,35.30
2019-05-20T03:22:44.476Z,39.70
2019-05-20T03:23:44.451Z,37.60
2019-05-20T03:24:44.354Z,35.30
2019-05-20T03:25:51.187Z,38.40
2019-05-20T03:26:44.382Z,35.90
2019-05-20T03:27:45.296Z,39.10
2019-05-20T03:28:44.242Z,34.40
2019-05-20T03:29:45.309Z,41.40
2019-05-20T03:30:44.194Z,39.70
2019-05-20T03:31:44.204Z,37.80
2019-05-20T03:32:44.148Z,37.50
2019-05-20T03:33:45.165Z,35.70
2019-05-20T03:34:53.677Z,39.70
2019-05-20T03:35:44.058Z,34.80
2019-05-20T03:36:45.052Z,37.80
2019-05-20T03:37:44.001Z,40.10
2019-05-20T03:38:44.094Z,40.70
2019-05-20T03:39:43.950Z,38.30
2019-05-20T03:40:44.025Z,39.10
2019-05-20T03:41:43.901Z,38.40
2019-05-20T03:42:43.935Z,40.00
2019-05-20T03:43:43.876Z,36.70
2019-05-20T03:44:43.859Z,40.50
2019-05-20T03:45:43.790Z,38.70
2019-05-20T03:46:43.756Z,39.00
2019-05-20T03:47:43.754Z,45.30
2019-05-20T03:48:43.704Z,40.90
2019-05-20T03:49:43.675Z,41.20
2019-05-20T03:50:43.656Z,41.30
2019-05-20T03:51:43.626Z,40.90
2019-05-20T03:52:43.609Z,46.00
2019-05-20T03:53:43.569Z,44.10
2019-05-20T03:54:43.554Z,44.30
2019-05-20T03:55:43.521Z,43.30
2019-05-20T03:56:43.493Z,45.40
2019-05-20T03:57:43.530Z,47.20
2019-05-20T03:58:43.428Z,47.10
2019-05-20T03:59:43.410Z,47.30
2019-05-20T04:00:43.461Z,46.50
2019-05-20T04:01:43.355Z,48.00
2019-05-20T04:02:43.357Z,46.20
2019-05-20T04:03:43.304Z,47.90
2019-05-20T04:05:00.896Z,43.50
2019-05-20T04:05:43.259Z,50.00
2019-05-20T04:06:43.227Z,49.70
2019-05-20T04:07:43.286Z,53.40
2019-05-20T04:08:43.156Z,50.60
2019-05-20T04:09:43.169Z,49.70
2019-05-20T04:10:43.126Z,53.50
2019-05-20T04:11:43.186Z,53.00
2019-05-20T04:12:43.053Z,49.70
2019-05-20T04:13:43.070Z,57.10
2019-05-20T04:14:43.027Z,53.60
2019-05-20T04:15:42.968Z,56.40
2019-05-20T04:16:42.944Z,55.90
2019-05-20T04:17:42.915Z,57.70
2019-05-20T04:18:42.889Z,54.30
2019-05-20T04:19:42.860Z,55.50
2019-05-20T04:20:43.017Z,58.90
2019-05-20T04:21:42.807Z,60.30
2019-05-20T04:22:42.819Z,61.60
2019-05-20T04:23:42.774Z,59.20
2019-05-20T04:24:42.735Z,57.40
2019-05-20T04:25:42.702Z,61.20
2019-05-20T04:26:42.764Z,58.30
2019-05-20T04:27:42.652Z,62.50
2019-05-20T04:28:42.630Z,66.70
2019-05-20T04:29:42.583Z,57.50
2019-05-20T04:30:42.571Z,60.00
2019-05-20T04:31:42.537Z,66.30
2019-05-20T04:32:42.499Z,63.60
2019-05-20T04:33:42.509Z,59.00
2019-05-20T04:34:42.452Z,59.90
2019-05-20T04:35:42.426Z,65.10
2019-05-20T04:36:42.409Z,64.90
2019-05-20T04:37:42.363Z,61.60
2019-05-20T04:38:42.426Z,60.00
2019-05-20T04:39:42.302Z,58.60
2019-05-20T04:40:42.333Z,63.60
2019-05-20T04:41:42.257Z,58.90
2019-05-20T04:42:43.268Z,62.50
2019-05-20T04:43:42.193Z,57.00
2019-05-20T04:44:42.258Z,63.10
2019-05-20T04:45:42.186Z,63.30
2019-05-20T04:46:42.176Z,58.80
2019-05-20T04:47:42.121Z,59.00
2019-05-20T04:48:42.097Z,59.60
2019-05-20T04:49:42.035Z,58.20
2019-05-20T04:50:42.108Z,58.80
2019-05-20T04:51:41.977Z,57.50
2019-05-20T04:52:42.013Z,58.90
2019-05-20T04:53:42.055Z,51.90
2019-05-20T04:54:41.922Z,55.30
2019-05-20T04:55:41.859Z,54.80
2019-05-20T04:56:42.857Z,53.60
2019-05-20T04:57:41.830Z,52.70
2019-05-20T04:58:42.871Z,57.00
2019-05-20T04:59:41.757Z,53.90
2019-05-20T05:00:42.787Z,58.00
2019-05-20T05:01:41.701Z,50.50
2019-05-20T05:02:43.634Z,50.40
2019-05-20T05:03:41.649Z,54.60
2019-05-20T05:04:42.722Z,52.70
2019-05-20T05:05:41.598Z,47.90
2019-05-20T05:06:41.601Z,46.30
2019-05-20T05:07:41.526Z,48.80
2019-05-20T05:08:42.535Z,47.10
2019-05-20T05:09:41.495Z,48.40
2019-05-20T05:10:41.525Z,49.00
2019-05-20T05:11:41.451Z,46.30
2019-05-20T05:12:41.435Z,48.10
2019-05-20T05:13:41.368Z,49.40
2019-05-20T05:14:41.345Z,48.80
2019-05-20T05:15:41.347Z,47.20
2019-05-20T05:16:41.362Z,47.00
2019-05-20T05:17:41.268Z,51.80
2019-05-20T05:18:41.344Z,50.80
2019-05-20T05:19:41.216Z,54.20
2019-05-20T05:20:41.181Z,48.20
2019-05-20T05:21:41.152Z,52.60
2019-05-20T05:22:41.128Z,49.90
2019-05-20T05:23:41.100Z,55.80
2019-05-20T05:24:41.072Z,55.30
2019-05-20T05:25:48.695Z,54.10
2019-05-20T05:26:41.017Z,56.40
2019-05-20T05:27:47.679Z,50.10
2019-05-20T05:28:40.959Z,52.00
2019-05-20T05:29:41.968Z,52.70
2019-05-20T05:30:40.990Z,53.40
2019-05-20T05:31:40.951Z,57.10
2019-05-20T05:32:40.850Z,59.20
2019-05-20T05:33:40.867Z,53.60
2019-05-20T05:34:40.789Z,54.50
2019-05-20T05:35:52.302Z,58.30
2019-05-20T05:36:40.772Z,57.50
2019-05-20T05:37:40.790Z,56.00
2019-05-20T05:38:40.695Z,58.70
2019-05-20T05:39:40.661Z,58.70
2019-05-20T05:40:40.628Z,62.60
2019-05-20T05:41:40.614Z,63.10
2019-05-20T05:42:40.575Z,55.40
2019-05-20T05:43:40.643Z,56.10
2019-05-20T05:44:40.518Z,59.40
2019-05-20T05:45:40.494Z,53.40
2019-05-20T05:46:40.476Z,53.20
2019-05-20T05:47:40.473Z,53.80
2019-05-20T05:48:40.427Z,56.00
2019-05-20T05:49:40.383Z,60.80
2019-05-20T05:50:40.352Z,59.50
2019-05-20T05:51:40.362Z,59.90
2019-05-20T05:52:40.293Z,58.50
2019-05-20T05:53:40.274Z,54.40
2019-05-20T05:54:40.247Z,53.30
2019-05-20T05:55:40.216Z,57.40
2019-05-20T05:56:40.192Z,59.10
2019-05-20T05:57:40.174Z,62.50
2019-05-20T05:58:40.142Z,55.80
2019-05-20T05:59:40.115Z,51.50
2019-05-20T06:00:40.075Z,57.20
2019-05-20T06:01:40.207Z,56.00
2019-05-20T06:02:40.027Z,54.00
2019-05-20T06:03:42.142Z,53.90
2019-05-20T06:04:39.968Z,55.60
2019-05-20T06:05:40.069Z,56.30
2019-05-20T06:06:39.910Z,53.00
2019-05-20T06:07:39.982Z,57.40
2019-05-20T06:08:39.868Z,55.10
2019-05-20T06:09:41.946Z,49.30
2019-05-20T06:10:39.800Z,57.00
2019-05-20T06:11:39.922Z,55.60
2019-05-20T06:12:39.743Z,52.70
2019-05-20T06:13:39.805Z,61.20
2019-05-20T06:14:39.703Z,50.30
2019-05-20T06:15:39.817Z,51.60
2019-05-20T06:16:39.640Z,53.70
2019-05-20T06:17:40.757Z,54.60
2019-05-20T06:18:39.660Z,50.70
2019-05-20T06:19:40.680Z,49.90
2019-05-20T06:20:39.526Z,49.70
2019-05-20T06:21:39.697Z,53.30
2019-05-20T06:22:39.543Z,47.80
2019-05-20T06:23:39.567Z,51.80
2019-05-20T06:24:39.419Z,50.70
2019-05-20T06:25:40.501Z,54.80
2019-05-20T06:26:39.366Z,53.20
2019-05-20T06:27:39.482Z,51.40
2019-05-20T06:28:39.370Z,53.10
2019-05-20T06:29:39.397Z,55.30
2019-05-20T06:30:39.278Z,54.20
2019-05-20T06:31:40.373Z,51.50
2019-05-20T06:32:39.219Z,49.60
2019-05-20T06:33:39.327Z,50.70
2019-05-20T06:34:42.285Z,52.50
2019-05-20T06:35:39.261Z,51.00
2019-05-20T06:36:39.096Z,52.50
2019-05-20T06:37:39.177Z,48.40
2019-05-20T06:38:39.034Z,53.70
2019-05-20T06:39:39.177Z,49.50
2019-05-20T06:40:38.990Z,46.00
2019-05-20T06:41:39.056Z,51.50
2019-05-20T06:42:39.008Z,49.70
2019-05-20T06:43:39.154Z,50.40
2019-05-20T06:44:51.692Z,48.00
2019-05-20T06:45:38.834Z,51.20
2019-05-20T06:46:39.929Z,54.50
2019-05-20T06:47:38.794Z,54.10
2019-05-20T06:48:38.827Z,52.20
2019-05-20T06:49:38.730Z,52.60
2019-05-20T06:50:38.727Z,53.20
2019-05-20T06:51:38.676Z,53.30
2019-05-20T06:52:39.676Z,53.40
2019-05-20T06:53:38.614Z,52.70
2019-05-20T06:54:38.768Z,55.80
2019-05-20T06:55:38.555Z,58.70
2019-05-20T06:56:38.528Z,54.40
2019-05-20T06:57:38.513Z,49.70
2019-05-20T06:58:38.478Z,48.90
2019-05-20T06:59:39.514Z,50.80
2019-05-20T07:00:38.424Z,46.10
2019-05-20T07:01:39.520Z,47.30
2019-05-20T07:02:38.373Z,45.80
2019-05-20T07:03:38.408Z,45.80
2019-05-20T07:04:38.299Z,47.40
2019-05-20T07:05:38.385Z,47.90
2019-05-20T07:06:46.701Z,44.60
2019-05-20T07:07:38.235Z,51.60
2019-05-20T07:08:38.202Z,48.10
2019-05-20T07:09:38.183Z,49.00
2019-05-20T07:10:38.188Z,49.20
2019-05-20T07:11:38.131Z,46.30
2019-05-20T07:12:41.622Z,47.50
2019-05-20T07:13:38.061Z,49.00
2019-05-20T07:14:38.038Z,48.70
2019-05-20T07:15:38.046Z,54.00
2019-05-20T07:16:38.016Z,49.80
2019-05-20T07:17:37.963Z,48.60
2019-05-20T07:18:37.924Z,50.80
2019-05-20T07:19:37.933Z,54.20
2019-05-20T07:20:37.934Z,51.00
2019-05-20T07:21:37.842Z,53.20
2019-05-20T07:22:54.522Z,51.70
2019-05-20T07:23:37.823Z,51.40
2019-05-20T07:24:37.779Z,50.50
2019-05-20T07:25:38.794Z,50.90
2019-05-20T07:26:37.712Z,50.20
2019-05-20T07:27:39.693Z,51.10
2019-05-20T07:28:37.698Z,50.80
2019-05-20T07:29:38.691Z,47.20
2019-05-20T07:30:37.603Z,54.70
2019-05-20T07:31:39.689Z,50.00
2019-05-20T07:32:37.532Z,51.20
2019-05-20T07:33:37.596Z,51.80
2019-05-20T07:34:37.479Z,51.60
2019-05-20T07:35:37.549Z,48.20
2019-05-20T07:36:37.431Z,49.20
2019-05-20T07:37:37.495Z,52.30
2019-05-20T07:38:37.411Z,48.50
2019-05-20T07:39:37.365Z,52.70
2019-05-20T07:40:37.328Z,53.60
2019-05-20T07:41:41.187Z,53.40
2019-05-20T07:42:37.272Z,54.60
2019-05-20T07:43:37.246Z,48.10
2019-05-20T07:44:37.231Z,46.20
2019-05-20T07:45:38.233Z,45.30
2019-05-20T07:46:37.158Z,46.20
2019-05-20T07:47:38.295Z,46.90
2019-05-20T07:48:37.483Z,43.70
2019-05-20T07:49:37.082Z,46.80
2019-05-20T07:50:38.203Z,44.40
2019-05-20T07:51:37.008Z,47.70
2019-05-20T07:52:37.049Z,45.00
2019-05-20T07:53:36.993Z,47.10
2019-05-20T07:54:37.982Z,49.30
2019-05-20T07:55:36.911Z,47.90
2019-05-20T07:56:36.931Z,48.80
2019-05-20T07:57:36.845Z,50.40
2019-05-20T07:58:37.950Z,49.50
2019-05-20T07:59:36.843Z,48.60
2019-05-20T08:00:36.812Z,53.50
2019-05-20T08:01:36.841Z,49.20
2019-05-20T08:02:36.769Z,48.50
2019-05-20T08:03:38.704Z,48.30
2019-05-20T08:04:36.693Z,49.80
2019-05-20T08:05:36.627Z,51.50
2019-05-20T08:06:36.658Z,50.10
2019-05-20T08:07:51.319Z,48.50
2019-05-20T08:08:36.540Z,48.50
2019-05-20T08:09:44.588Z,44.30
2019-05-20T08:10:36.505Z,49.40
2019-05-20T08:11:36.487Z,43.90
2019-05-20T08:12:36.458Z,48.00
2019-05-20T08:13:36.525Z,44.70
2019-05-20T08:14:36.391Z,48.00
2019-05-20T08:15:36.362Z,44.40
2019-05-20T08:16:36.336Z,43.30
2019-05-20T08:17:36.302Z,42.40
2019-05-20T08:18:36.300Z,40.70
2019-05-20T08:19:36.348Z,49.00
2019-05-20T08:20:36.239Z,47.40
2019-05-20T08:21:36.184Z,43.30
2019-05-20T08:22:36.181Z,44.40
2019-05-20T08:23:36.181Z,43.00
2019-05-20T08:24:36.107Z,42.90
2019-05-20T08:25:36.196Z,41.90
2019-05-20T08:26:36.061Z,50.30
2019-05-20T08:27:36.100Z,40.80
2019-05-20T08:28:35.994Z,40.70
2019-05-20T08:29:35.960Z,41.40
2019-05-20T08:30:35.929Z,38.00
2019-05-20T08:31:35.901Z,41.60
2019-05-20T08:32:35.903Z,39.60
2019-05-20T08:33:35.880Z,39.10
2019-05-20T08:34:36.393Z,41.50
2019-05-20T08:35:35.959Z,41.20
2019-05-20T08:36:35.795Z,40.20
2019-05-20T08:37:45.371Z,36.40
2019-05-20T08:38:35.725Z,37.50
2019-05-20T08:39:35.688Z,38.30
2019-05-20T08:40:35.659Z,38.00
2019-05-20T08:41:35.631Z,39.50
2019-05-20T08:42:35.613Z,38.10
2019-05-20T08:43:35.674Z,35.70
2019-05-20T08:44:35.645Z,39.30
2019-05-20T08:45:44.251Z,37.20
2019-05-20T08:46:35.492Z,36.60
2019-05-20T08:47:56.560Z,37.80
2019-05-20T08:48:35.497Z,40.20
2019-05-20T08:49:35.639Z,36.40
2019-05-20T08:50:35.380Z,36.70
2019-05-20T08:51:37.455Z,38.20
2019-05-20T08:52:35.341Z,37.90
2019-05-20T08:53:35.451Z,38.50
2019-05-20T08:54:35.267Z,39.90
2019-05-20T08:55:56.256Z,38.90
2019-05-20T08:56:35.236Z,33.20
2019-05-20T08:57:35.275Z,36.50
2019-05-20T08:58:35.167Z,35.80
2019-05-20T08:59:35.177Z,35.10
2019-05-20T09:00:35.097Z,35.80
2019-05-20T09:01:35.117Z,36.20
2019-05-20T09:02:35.045Z,34.20
2019-05-20T09:03:35.108Z,33.50
2019-05-20T09:04:34.988Z,35.60
2019-05-20T09:05:35.062Z,40.30
2019-05-20T09:06:34.945Z,35.80
2019-05-20T09:07:35.960Z,33.20
2019-05-20T09:08:34.903Z,34.50
2019-05-20T09:09:35.023Z,36.50
2019-05-20T09:10:34.844Z,33.40
2019-05-20T09:11:34.891Z,34.50
2019-05-20T09:12:34.778Z,34.70
2019-05-20T09:13:34.768Z,35.70
2019-05-20T09:14:34.722Z,39.30
2019-05-20T09:15:34.779Z,38.10
2019-05-20T09:16:34.655Z,35.30
2019-05-20T09:17:38.650Z,34.40
2019-05-20T09:18:34.613Z,34.20
2019-05-20T09:19:34.616Z,36.80
2019-05-20T09:20:34.554Z,37.10
2019-05-20T09:21:34.614Z,36.40
2019-05-20T09:22:34.498Z,35.70
2019-05-20T09:23:34.494Z,37.40
2019-05-20T09:24:34.516Z,38.90
2019-05-20T09:25:34.450Z,35.60
2019-05-20T09:26:34.509Z,35.60
2019-05-20T09:27:34.402Z,37.70
2019-05-20T09:28:34.336Z,37.40
2019-05-20T09:29:37.862Z,36.60
2019-05-20T09:30:34.275Z,34.90
2019-05-20T09:31:34.266Z,37.70
2019-05-20T09:32:34.224Z,37.80
2019-05-20T09:33:34.200Z,32.90
2019-05-20T09:34:34.166Z,34.50
2019-05-20T09:35:34.136Z,36.10
2019-05-20T09:36:34.110Z,35.90
2019-05-20T09:37:34.080Z,33.50
2019-05-20T09:38:36.918Z,34.50
2019-05-20T09:39:34.025Z,35.10
2019-05-20T09:40:33.998Z,34.40
2019-05-20T09:41:33.973Z,35.70
2019-05-20T09:42:33.950Z,35.30
2019-05-20T09:43:33.978Z,32.10
2019-05-20T09:44:33.928Z,34.60
2019-05-20T09:45:33.867Z,34.10
2019-05-20T09:46:33.831Z,32.90
2019-05-20T09:47:33.926Z,36.40
2019-05-20T09:48:33.815Z,34.50
2019-05-20T09:49:33.766Z,32.70
2019-05-20T09:50:33.744Z,34.10
2019-05-20T09:51:33.751Z,35.60
2019-05-20T09:52:33.661Z,32.80
2019-05-20T09:53:33.645Z,34.10
2019-05-20T09:54:33.615Z,33.70
2019-05-20T09:55:33.668Z,37.10
2019-05-20T09:56:34.590Z,36.50
2019-05-20T09:57:33.555Z,39.50
2019-05-20T09:58:33.559Z,40.40
2019-05-20T09:59:42.522Z,36.70
2019-05-20T10:00:33.465Z,36.30
2019-05-20T10:01:33.443Z,33.80
2019-05-20T10:02:37.833Z,33.30
2019-05-20T10:03:33.361Z,34.60
2019-05-20T10:04:33.326Z,31.70
2019-05-20T10:05:36.544Z,31.00
2019-05-20T10:06:33.279Z,37.40
2019-05-20T10:07:33.378Z,34.30
2019-05-20T10:08:38.920Z,33.90
2019-05-20T10:09:33.207Z,31.60
2019-05-20T10:10:33.236Z,34.80
2019-05-20T10:11:33.140Z,33.60
2019-05-20T10:12:45.199Z,31.30
2019-05-20T10:13:33.104Z,32.40
2019-05-20T10:14:33.130Z,31.80
2019-05-20T10:15:33.020Z,32.80
2019-05-20T10:16:33.045Z,32.40
2019-05-20T10:17:32.965Z,32.40
2019-05-20T10:18:37.213Z,32.90
2019-05-20T10:19:32.931Z,31.00
2019-05-20T10:20:33.018Z,30.70
2019-05-20T10:21:32.894Z,35.50
2019-05-20T10:22:32.942Z,32.10
2019-05-20T10:23:32.823Z,34.20
2019-05-20T10:24:32.964Z,38.00
2019-05-20T10:25:32.788Z,37.40
2019-05-20T10:26:32.853Z,33.70
2019-05-20T10:27:32.690Z,35.10
2019-05-20T10:28:32.812Z,33.90
2019-05-20T10:29:32.666Z,31.70
2019-05-20T10:30:32.760Z,32.90
2019-05-20T10:31:32.599Z,34.70
2019-05-20T10:32:32.684Z,33.40
2019-05-20T10:33:32.528Z,35.30
2019-05-20T10:34:32.606Z,37.90
2019-05-20T10:35:32.470Z,39.80
2019-05-20T10:36:32.445Z,33.20
2019-05-20T10:37:32.476Z,32.70
2019-05-20T10:38:32.396Z,36.20
2019-05-20T10:39:32.363Z,32.80
2019-05-20T10:40:32.421Z,36.10
2019-05-20T10:41:32.317Z,33.50
2019-05-20T10:42:32.288Z,36.70
2019-05-20T10:43:32.247Z,35.20
2019-05-20T10:44:32.254Z,35.80
2019-05-20T10:45:32.191Z,35.10
2019-05-20T10:46:32.250Z,33.60
2019-05-20T10:47:32.173Z,36.50
2019-05-20T10:48:32.298Z,35.10
2019-05-20T10:49:32.091Z,34.60
2019-05-20T10:50:32.045Z,36.80
2019-05-20T10:51:32.030Z,33.20
2019-05-20T10:52:32.125Z,34.60
2019-05-20T10:53:31.972Z,38.60
2019-05-20T10:54:31.948Z,34.80
2019-05-20T10:55:32.097Z,32.90
2019-05-20T10:56:31.883Z,34.60
2019-05-20T10:57:32.031Z,34.30
2019-05-20T10:58:31.839Z,35.00
2019-05-20T10:59:31.947Z,36.80
2019-05-20T11:00:31.792Z,36.60
2019-05-20T11:01:31.859Z,33.70
2019-05-20T11:02:31.766Z,36.80
2019-05-20T11:03:31.667Z,34.80
2019-05-20T11:04:35.302Z,33.80
2019-05-20T11:05:31.634Z,35.20
2019-05-20T11:06:31.594Z,34.90
2019-05-20T11:07:31.558Z,35.00
2019-05-20T11:08:31.556Z,33.80
2019-05-20T11:09:31.502Z,33.30
2019-05-20T11:10:31.478Z,33.90
2019-05-20T11:11:31.489Z,37.20
2019-05-20T11:12:31.431Z,34.00
2019-05-20T11:13:31.387Z,33.70
2019-05-20T11:14:31.360Z,35.00
2019-05-20T11:15:31.346Z,35.70
2019-05-20T11:16:31.308Z,33.20
2019-05-20T11:17:31.310Z,32.30
2019-05-20T11:18:31.275Z,34.70
2019-05-20T11:19:31.226Z,34.00
2019-05-20T11:20:31.183Z,34.90
2019-05-20T11:21:31.188Z,38.30
2019-05-20T11:22:31.162Z,34.30
2019-05-20T11:23:31.129Z,36.30
2019-05-20T11:24:31.107Z,35.00
2019-05-20T11:25:31.335Z,34.60
2019-05-20T11:26:31.074Z,33.30
2019-05-20T11:27:31.019Z,33.20
2019-05-20T11:28:30.962Z,33.20
2019-05-20T11:29:30.929Z,32.40
2019-05-20T11:30:30.892Z,33.40
2019-05-20T11:31:30.882Z,34.70
2019-05-20T11:32:30.910Z,34.00
2019-05-20T11:33:30.811Z,36.40
2019-05-20T11:34:30.862Z,33.80
2019-05-20T11:35:30.801Z,33.70
2019-05-20T11:36:30.721Z,33.00
2019-05-20T11:37:30.730Z,33.10
2019-05-20T11:38:30.682Z,31.10
2019-05-20T11:39:33.696Z,34.60
2019-05-20T11:40:30.632Z,33.40
2019-05-20T11:41:52.067Z,33.10
2019-05-20T11:42:30.563Z,32.50
2019-05-20T11:43:30.546Z,31.70
2019-05-20T11:44:30.681Z,30.80
2019-05-20T11:45:30.498Z,33.50
2019-05-20T11:46:30.458Z,33.20
2019-05-20T11:47:30.425Z,30.70
2019-05-20T11:48:30.387Z,31.70
2019-05-20T11:49:30.368Z,31.70
2019-05-20T11:50:31.426Z,30.70
2019-05-20T11:51:30.320Z,32.50
2019-05-20T11:52:32.407Z,30.30
2019-05-20T11:53:30.253Z,31.30
2019-05-20T11:54:31.356Z,29.40
2019-05-20T11:55:30.220Z,28.80
2019-05-20T11:56:30.178Z,29.00
2019-05-20T11:57:30.232Z,30.70
2019-05-20T11:58:30.107Z,30.80
2019-05-20T11:59:30.133Z,30.40
2019-05-20T12:00:30.059Z,30.00
2019-05-20T12:01:30.032Z,27.10
2019-05-20T12:02:30.043Z,28.70
2019-05-20T12:03:30.046Z,27.80
2019-05-20T12:04:29.945Z,28.10
2019-05-20T12:05:29.928Z,28.20
2019-05-20T12:06:29.886Z,28.30
2019-05-20T12:07:29.861Z,27.40
2019-05-20T12:08:29.839Z,26.20
2019-05-20T12:09:29.815Z,28.50
2019-05-20T12:10:29.776Z,31.10
2019-05-20T12:11:29.762Z,28.20
2019-05-20T12:12:29.811Z,31.30
2019-05-20T12:13:29.700Z,28.20
2019-05-20T12:14:29.657Z,28.40
2019-05-20T12:15:29.651Z,28.70
2019-05-20T12:16:29.637Z,28.40
2019-05-20T12:17:29.594Z,27.30
2019-05-20T12:18:29.649Z,29.60
2019-05-20T12:19:29.628Z,30.60
2019-05-20T12:20:29.558Z,31.50
2019-05-20T12:21:29.502Z,28.80
2019-05-20T12:22:29.475Z,29.00
2019-05-20T12:23:29.416Z,33.60
2019-05-20T12:24:29.518Z,29.20
2019-05-20T12:25:29.370Z,31.30
2019-05-20T12:26:29.401Z,30.00
2019-05-20T12:27:29.309Z,31.20
2019-05-20T12:28:29.310Z,29.40
2019-05-20T12:29:29.253Z,32.30
2019-05-20T12:30:29.330Z,33.80
2019-05-20T12:31:29.215Z,31.20
2019-05-20T12:32:29.231Z,29.50
2019-05-20T12:33:29.160Z,31.60
2019-05-20T12:34:29.146Z,31.40
2019-05-20T12:35:29.088Z,28.80
2019-05-20T12:36:29.158Z,32.00
2019-05-20T12:37:29.042Z,30.00
2019-05-20T12:38:29.012Z,33.70
2019-05-20T12:39:29.085Z,31.90
2019-05-20T12:40:28.961Z,32.30
2019-05-20T12:41:29.021Z,31.00
2019-05-20T12:42:28.902Z,31.40
2019-05-20T12:43:28.906Z,33.00
2019-05-20T12:44:28.850Z,31.70
2019-05-20T12:45:28.914Z,30.90
2019-05-20T12:46:28.804Z,30.20
2019-05-20T12:47:28.830Z,28.80
2019-05-20T12:48:28.739Z,31.70
2019-05-20T12:49:28.779Z,28.40
2019-05-20T12:50:28.683Z,31.10
2019-05-20T12:51:28.755Z,29.40
2019-05-20T12:52:28.636Z,27.80